Time;durP1;ratioP1;P1;durP2;ratioP2;P2;SDS_P1;SDS_P2;PMS_P1;PMS_P2;Temp;Humidity;BMP_temperature;BMP_pressure;BME280_temperature;BME280_humidity;BME280_pressure;Samples;Min_cycle;Max_cycle;Signal;HPM_P1;HPM_P2
2023/08/27 00:37:25;;;;;;;9.10;4.90;;;;;;;13.00;100.00;95398.56;7411187;19;20453;-96
2023/08/27 00:44:15;;;;;;;4.77;4.37;;;;;;;14.75;100.00;95615.31;7436858;19;20368;-96
2023/08/27 00:47:26;;;;;;;7.40;5.37;;;;;;;14.62;100.00;95622.84;7434076;19;20407;-96
2023/08/27 00:57:18;;;;;;;5.90;5.40;;;;;;;12.91;100.00;95400.00;7430569;19;20411;-96
2023/08/27 02:04:38;;;;;;;8.10;6.07;;;;;;;14.44;100.00;95561.53;7298410;19;20405;-94
2023/08/27 02:07:08;;;;;;;5.57;5.07;;;;;;;14.14;100.00;95536.94;7431614;19;20395;-96
2023/08/27 02:59:36;;;;;;;6.40;5.90;;;;;;;13.36;100.00;95364.44;7436475;19;20407;-96
2023/08/27 03:02:17;;;;;;;6.63;6.13;;;;;;;12.42;100.00;95223.38;7436987;19;20399;-95
2023/08/27 03:05:09;;;;;;;7.00;6.40;;;;;;;14.05;100.00;95441.59;7435389;19;20437;-95
2023/08/27 03:07:47;;;;;;;7.27;6.60;;;;;;;13.29;100.00;95329.84;7436859;19;20435;-95
2023/08/27 03:10:17;;;;;;;7.13;6.63;;;;;;;13.31;100.00;95341.63;7436612;19;20417;-95
2023/08/27 03:13:05;;;;;;;6.87;6.23;;;;;;;13.64;100.00;95393.09;7438146;19;20388;-94
2023/08/27 03:15:54;;;;;;;7.73;6.80;;;;;;;14.43;100.00;95485.50;7437907;19;20380;-95
2023/08/27 03:18:29;;;;;;;10.30;9.30;;;;;;;12.21;100.00;95172.78;7435414;19;20448;-95
2023/08/27 03:24:01;;;;;;;8.97;8.00;;;;;;;14.29;100.00;95490.75;7437718;19;20427;-96
2023/08/27 03:26:39;;;;;;;9.73;8.90;;;;;;;12.61;100.00;95267.47;7436638;19;20388;-95
2023/08/27 03:29:14;;;;;;;11.40;8.07;;;;;;;14.47;100.00;95512.16;7432039;19;20456;-95
2023/08/27 03:31:50;;;;;;;7.03;6.33;;;;;;;13.52;100.00;95367.59;7436574;19;20388;-95
2023/08/27 03:34:30;;;;;;;7.20;6.50;;;;;;;12.47;100.00;95209.00;7435012;19;20425;-96
2023/08/27 03:37:07;;;;;;;8.53;7.70;;;;;;;13.69;100.00;95384.78;7437813;19;20403;-94
2023/08/27 03:39:45;;;;;;;8.80;7.93;;;;;;;12.61;100.00;95204.59;7433963;19;20435;-95
2023/08/27 03:42:23;;;;;;;8.60;7.70;;;;;;;12.49;100.00;95196.91;7434545;19;20384;-95
2023/08/27 03:45:14;;;;;;;7.63;7.03;;;;;;;12.85;100.00;95232.44;7437320;19;20389;-95
2023/08/27 03:47:52;;;;;;;8.53;7.80;;;;;;;12.76;100.00;95218.72;7434642;19;20416;-95
2023/08/27 03:50:28;;;;;;;7.70;7.10;;;;;;;13.23;100.00;95347.25;7433902;19;20385;-96
2023/08/27 03:53:10;;;;;;;9.07;8.17;;;;;;;12.44;100.00;95221.09;7436097;19;20413;-95
2023/08/27 03:55:43;;;;;;;7.27;6.60;;;;;;;13.17;100.00;95364.59;7435303;19;20432;-95
2023/08/27 03:58:23;;;;;;;8.23;7.40;;;;;;;12.21;100.00;95204.59;7432876;19;20424;-95
2023/08/27 04:00:55;;;;;;;8.93;8.03;;;;;;;12.56;100.00;95262.50;7436095;19;20410;-96
2023/08/27 04:03:38;;;;;;;8.20;7.60;;;;;;;12.32;100.00;95259.22;7434379;19;20364;-96
2023/08/27 04:06:13;;;;;;;8.30;7.60;;;;;;;13.21;100.00;95376.81;7436333;19;20422;-96
2023/08/27 04:08:48;;;;;;;11.00;8.20;;;;;;;14.28;100.00;95521.09;7433622;19;20427;-95
2023/08/27 04:11:21;;;;;;;12.03;7.63;;;;;;;13.32;100.00;95375.00;7433289;19;20391;-96
2023/08/27 04:13:49;;;;;;;8.40;7.60;;;;;;;12.29;100.00;95224.75;7435315;19;20388;-95
2023/08/27 04:16:26;;;;;;;8.50;7.60;;;;;;;12.34;100.00;95229.72;7431566;19;20373;-95
2023/08/27 04:19:02;;;;;;;8.23;7.27;;;;;;;14.48;100.00;95548.25;7433988;19;20465;-94
2023/08/27 04:21:44;;;;;;;8.37;7.37;;;;;;;14.35;100.00;95553.06;7434681;19;20405;-96
2023/08/27 04:24:17;;;;;;;7.97;7.17;;;;;;;12.39;100.00;95226.72;7433010;19;20448;-95
2023/08/27 04:26:51;;;;;;;8.70;7.50;;;;;;;13.80;100.00;95414.09;7434471;19;20393;-96
2023/08/27 04:29:26;;;;;;;11.27;6.70;;;;;;;12.61;100.00;95233.00;7428922;19;20452;-95
2023/08/27 04:32:02;;;;;;;6.87;6.27;;;;;;;12.47;100.00;95222.25;7435716;19;20393;-96
2023/08/27 04:34:36;;;;;;;7.80;7.20;;;;;;;13.66;100.00;95384.75;7433361;19;20380;-96
2023/08/27 04:37:08;;;;;;;8.13;7.47;;;;;;;12.59;100.00;95220.09;7435407;19;20384;-95
2023/08/27 04:39:40;;;;;;;8.67;7.67;;;;;;;12.60;100.00;95226.16;7428460;19;20412;-95
2023/08/27 04:42:17;;;;;;;9.40;7.63;;;;;;;12.69;100.00;95240.66;7433088;19;20439;-96
2023/08/27 04:44:54;;;;;;;9.93;9.03;;;;;;;14.55;100.00;95535.00;7434679;19;20392;-95
2023/08/27 04:47:38;;;;;;;14.37;11.40;;;;;;;12.49;100.00;95226.06;7432074;19;20436;-95
2023/08/27 04:50:16;;;;;;;9.27;8.47;;;;;;;13.37;100.00;95355.34;7432180;19;20392;-95
2023/08/27 04:52:49;;;;;;;7.27;6.70;;;;;;;13.65;100.00;95401.81;7434019;19;20384;-95
2023/08/27 04:55:33;;;;;;;7.50;6.80;;;;;;;12.95;100.00;95303.41;7432857;19;20385;-95
2023/08/27 04:58:05;;;;;;;8.70;7.97;;;;;;;13.76;100.00;95422.03;7433584;19;20435;-95
2023/08/27 05:00:48;;;;;;;7.83;7.23;;;;;;;13.70;100.00;95428.81;7434200;19;20413;-95
2023/08/27 05:03:16;;;;;;;8.60;7.90;;;;;;;13.66;100.00;95427.25;7431321;19;20408;-95
2023/08/27 05:05:47;;;;;;;9.03;7.93;;;;;;;13.36;100.00;95368.97;7433688;19;20404;-95
2023/08/27 05:08:15;;;;;;;9.57;8.70;;;;;;;13.66;100.00;95404.13;7430641;19;20417;-95
2023/08/27 05:10:48;;;;;;;9.03;8.23;;;;;;;12.51;100.00;95270.75;7433738;19;20392;-94
2023/08/27 05:13:16;;;;;;;10.70;9.60;;;;;;;12.37;100.00;95242.22;7432213;19;20384;-95
2023/08/27 05:15:47;;;;;;;10.40;9.50;;;;;;;13.06;100.00;95353.88;7433917;19;20433;-95
2023/08/27 05:18:19;;;;;;;10.73;9.83;;;;;;;13.35;100.00;95399.28;7431861;19;20424;-95
2023/08/27 05:20:47;;;;;;;10.00;9.10;;;;;;;13.35;100.00;95376.16;7433932;19;20385;-95
2023/08/27 05:23:14;;;;;;;9.80;8.80;;;;;;;12.16;100.00;95226.13;7432213;19;20397;-95
2023/08/27 05:25:44;;;;;;;9.20;8.47;;;;;;;13.32;100.00;95406.84;7431343;19;20393;-95
2023/08/27 05:28:14;;;;;;;8.87;8.17;;;;;;;12.58;100.00;95268.19;7428592;19;20421;-95
2023/08/27 05:30:42;;;;;;;12.17;7.33;;;;;;;13.49;100.00;95396.78;7430925;19;20388;-95
2023/08/27 05:33:15;;;;;;;7.30;6.70;;;;;;;13.48;100.00;95382.72;7432665;19;20377;-95
2023/08/27 05:35:49;;;;;;;8.00;7.40;;;;;;;13.44;100.00;95373.97;7431343;19;20384;-95
2023/08/27 05:38:17;;;;;;;7.23;6.63;;;;;;;13.53;100.00;95400.97;7431992;19;20404;-94
2023/08/27 05:40:53;;;;;;;8.80;6.87;;;;;;;13.60;100.00;95394.94;7427910;19;20389;-94
2023/08/27 05:43:32;;;;;;;6.80;6.23;;;;;;;12.21;100.00;95175.44;7433114;19;20387;-96
2023/08/27 05:46:10;;;;;;;7.17;6.67;;;;;;;13.76;100.00;95392.81;7431643;19;20384;-96
2023/08/27 05:48:38;;;;;;;7.33;6.60;;;;;;;12.63;100.00;95241.34;7428987;19;20428;-95
2023/08/27 05:51:15;;;;;;;7.47;6.80;;;;;;;13.70;100.00;95370.34;7431678;19;20397;-95
2023/08/27 05:53:48;;;;;;;7.20;6.53;;;;;;;12.54;100.00;95238.22;7430923;19;20396;-94
2023/08/27 05:56:27;;;;;;;8.33;7.53;;;;;;;14.37;100.00;95526.09;7432169;19;20384;-94
2023/08/27 05:58:57;;;;;;;8.70;7.40;;;;;;;13.38;100.00;95345.47;7429772;19;20428;-95
2023/08/27 06:01:52;;;;;;;7.93;7.23;;;;;;;14.57;100.00;95529.31;7432557;19;20415;-94
2023/08/27 06:04:28;;;;;;;7.70;7.10;;;;;;;13.35;100.00;95356.81;7431685;19;20428;-95
2023/08/27 06:07:05;;;;;;;8.33;7.63;;;;;;;13.32;100.00;95342.38;7430652;19;20416;-95
2023/08/27 06:09:34;;;;;;;8.20;6.90;;;;;;;13.56;100.00;95386.19;7430509;19;20484;-94
2023/08/27 06:12:02;;;;;;;8.50;7.70;;;;;;;13.25;100.00;95334.38;7431364;19;20385;-94
2023/08/27 06:14:29;;;;;;;8.37;7.43;;;;;;;12.17;100.00;95177.31;7431034;19;20425;-94
2023/08/27 06:16:56;;;;;;;7.30;6.67;;;;;;;13.34;100.00;95364.00;7438729;19;20389;-95
2023/08/27 06:19:24;;;;;;;8.67;7.80;;;;;;;12.10;100.00;95193.88;7434958;19;20451;-95
2023/08/27 06:22:04;;;;;;;8.00;7.30;;;;;;;13.66;100.00;95390.06;7437437;19;20419;-94
2023/08/27 06:24:36;;;;;;;8.07;7.47;;;;;;;13.26;100.00;95347.28;7437628;19;20385;-95
2023/08/27 06:27:04;;;;;;;7.97;7.27;;;;;;;13.55;100.00;95379.38;7439279;19;20392;-94
2023/08/27 06:29:33;;;;;;;7.40;6.80;;;;;;;13.68;100.00;95385.16;7434777;19;20439;-95
2023/08/27 06:32:01;;;;;;;8.63;7.87;;;;;;;13.36;100.00;95355.72;7438916;19;20395;-94
2023/08/27 06:34:32;;;;;;;8.70;8.00;;;;;;;12.49;100.00;95215.47;7437447;19;20400;-94
2023/08/27 08:02:40;;;;;;;9.47;8.37;;;;;;;15.82;100.00;95495.91;7300373;19;20810;-95
2023/08/27 08:05:22;;;;;;;9.03;8.23;;;;;;;14.59;100.00;95324.88;7434183;19;20385;-96
2023/08/27 08:08:10;;;;;;;10.07;9.10;;;;;;;13.74;100.00;95174.56;7432690;19;20452;-95
2023/08/27 08:10:45;;;;;;;10.53;8.63;;;;;;;15.42;100.00;95433.03;7435405;19;20377;-95
2023/08/27 08:13:21;;;;;;;7.70;7.10;;;;;;;14.77;100.00;95307.03;7434295;19;20393;-95
2023/08/27 08:15:59;;;;;;;7.17;6.67;;;;;;;14.83;100.00;95307.44;7433304;19;20440;-95
2023/08/27 08:18:38;;;;;;;7.77;6.90;;;;;;;14.94;100.00;95310.84;7433103;19;20409;-96
2023/08/27 08:21:34;;;;;;;6.73;6.10;;;;;;;13.88;100.00;95169.28;7433851;19;20404;-96
2023/08/27 08:29:51;;;;;;;5.70;5.20;;;;;;;14.96;100.00;95335.97;7430102;19;20444;-96
2023/08/27 08:32:19;;;;;;;5.67;5.10;;;;;;;16.19;100.00;95519.53;7432640;19;20369;-96
2023/08/27 08:34:59;;;;;;;6.90;6.33;;;;;;;15.19;100.00;95358.81;7430583;19;20376;-96
2023/08/27 08:37:41;;;;;;;5.93;5.40;;;;;;;15.06;100.00;95351.19;7431203;19;20390;-95
2023/08/27 08:42:59;;;;;;;6.00;5.50;;;;;;;15.14;100.00;95325.34;7434587;19;20403;-95
2023/08/27 08:45:52;;;;;;;5.83;5.33;;;;;;;15.36;100.00;95336.75;7432466;19;20388;-95
2023/08/27 08:48:29;;;;;;;4.67;4.27;;;;;;;14.84;100.00;95300.97;7430551;19;20433;-95
2023/08/27 09:06:24;;;;;;;4.63;3.97;;;;;;;15.66;100.00;95416.31;7321196;19;20711;-96
2023/08/27 09:09:01;;;;;;;5.50;5.00;;;;;;;15.20;100.00;95363.75;7431922;19;20492;-95
2023/08/27 09:11:35;;;;;;;4.37;3.97;;;;;;;15.07;100.00;95360.69;7431768;19;20384;-95
2023/08/27 09:14:16;;;;;;;4.77;3.67;;;;;;;15.08;100.00;95362.19;7433978;19;20389;-95
2023/08/27 09:16:51;;;;;;;4.00;3.60;;;;;;;15.88;100.00;95481.03;7432541;19;20372;-95
2023/08/27 09:19:34;;;;;;;4.20;3.80;;;;;;;15.36;100.00;95376.72;7430426;19;20423;-96
2023/08/27 09:22:05;;;;;;;4.87;4.47;;;;;;;15.61;100.00;95406.03;7433461;19;20400;-94
2023/08/27 09:37:02;;;;;;;6.83;3.87;;;;;;;15.06;100.00;95281.19;7436244;19;20816;-95
2023/08/27 09:39:46;;;;;;;4.23;3.90;;;;;;;15.79;100.00;95403.38;7432700;19;20424;-95
2023/08/27 09:42:37;;;;;;;4.30;4.00;;;;;;;15.12;100.00;95265.63;7434066;19;20384;-96
2023/08/27 09:45:37;;;;;;;4.47;4.17;;;;;;;16.68;100.00;95496.59;7433047;19;20356;-95
2023/08/27 09:48:28;;;;;;;4.87;4.47;;;;;;;15.27;100.00;95281.19;7434577;19;20416;-96
2023/08/27 09:51:09;;;;;;;5.33;4.57;;;;;;;15.22;100.00;95246.94;7434419;19;20376;-96
2023/08/27 09:53:42;;;;;;;5.10;4.70;;;;;;;14.93;100.00;95221.50;7433286;19;20377;-94
2023/08/27 09:56:28;;;;;;;7.33;5.13;;;;;;;16.10;100.00;95399.13;7435151;19;20373;-96
2023/08/27 09:59:07;;;;;;;5.67;5.17;;;;;;;15.87;100.00;95386.97;7429884;19;20447;-94
2023/08/27 10:01:42;;;;;;;5.33;4.93;;;;;;;16.38;100.00;95446.31;7430432;19;20380;-94
2023/08/27 10:04:23;;;;;;;4.67;4.27;;;;;;;16.05;100.00;95444.88;7431811;19;20381;-95
2023/08/27 10:06:57;;;;;;;5.00;4.60;;;;;;;16.81;100.00;95583.13;7431100;19;20413;-95
2023/08/27 10:09:39;;;;;;;4.90;4.50;;;;;;;15.93;100.00;95446.78;7431143;19;20424;-95
2023/08/27 10:12:13;;;;;;;5.03;4.63;;;;;;;15.87;100.00;95437.63;7431333;19;20404;-95
2023/08/27 10:14:49;;;;;;;4.57;4.17;;;;;;;14.60;100.00;95247.34;7430064;19;20364;-95
2023/08/27 10:17:24;;;;;;;4.63;4.23;;;;;;;16.77;100.00;95598.41;7431462;19;20381;-94
2023/08/27 10:20:01;;;;;;;4.63;4.23;;;;;;;14.61;100.00;95238.22;7430437;19;20385;-95
2023/08/27 10:22:43;;;;;;;5.07;4.67;;;;;;;15.52;100.00;95387.00;7429819;19;20388;-95
2023/08/27 10:25:42;;;;;;;4.37;4.07;;;;;;;15.91;100.00;95473.06;7431048;19;20421;-94
2023/08/27 10:49:40;;;;;;;4.87;4.10;;;;;;;15.09;100.00;95237.88;7327408;19;20444;-94
2023/08/27 10:52:17;;;;;;;4.47;4.07;;;;;;;17.00;100.00;95515.97;7429360;19;20396;-93
2023/08/27 10:55:06;;;;;;;3.30;3.10;;;;;;;16.12;100.00;95383.50;7431107;19;20405;-96
2023/08/27 10:57:42;;;;;;;3.63;3.33;;;;;;;16.08;100.00;95369.44;7430249;19;20387;-96
2023/08/27 11:00:27;;;;;;;3.93;3.63;;;;;;;15.50;100.00;95274.72;7430917;19;20381;-95
2023/08/27 11:03:12;;;;;;;3.67;3.37;;;;;;;16.02;100.00;95353.03;7439228;19;20384;-95
2023/08/27 11:05:45;;;;;;;3.30;3.10;;;;;;;15.92;100.00;95353.84;7437672;19;20381;-95
2023/08/27 11:08:32;;;;;;;4.57;4.00;;;;;;;16.02;100.00;95355.72;7434792;19;20428;-94
2023/08/27 11:11:14;;;;;;;3.60;3.07;;;;;;;16.24;100.00;95337.75;7434933;19;20388;-96
2023/08/27 11:14:13;;;;;;;3.33;3.03;;;;;;;17.33;100.00;95497.88;7437329;19;20446;-95
2023/08/27 11:17:07;;;;;;;3.77;3.53;;;;;;;17.40;100.00;95513.88;7437052;19;20393;-95
2023/08/27 11:19:43;;;;;;;3.20;2.90;;;;;;;17.28;100.00;95517.00;7433060;19;20468;-94
2023/08/27 11:22:18;;;;;;;3.00;2.80;;;;;;;16.16;100.00;95378.91;7437850;19;20404;-94
2023/08/27 11:24:53;;;;;;;3.33;2.80;;;;;;;17.00;100.00;95523.97;7435896;19;20454;-95
2023/08/27 11:27:22;;;;;;;3.50;2.70;;;;;;;16.06;100.00;95371.72;7437756;19;20384;-94
2023/08/27 11:29:59;;;;;;;8.07;7.00;;;;;;;15.25;100.00;95213.50;7431976;19;20395;-95
2023/08/27 11:32:44;;;;;;;2.80;2.50;;;;;;;16.43;100.00;95358.66;7434807;19;20388;-95
2023/08/27 11:35:27;;;;;;;2.60;2.40;;;;;;;16.84;100.00;95414.94;7437027;19;20407;-96
2023/08/27 11:38:11;;;;;;;2.83;2.60;;;;;;;17.71;100.00;95518.28;7435054;19;20412;-94
2023/08/27 11:40:43;;;;;;;2.50;2.30;;;;;;;16.42;100.00;95309.09;7434521;19;20393;-94
2023/08/27 11:43:25;;;;;;;6.37;5.87;;;;;;;15.64;100.00;95178.78;7437413;19;20372;-95
2023/08/27 11:46:08;;;;;;;4.13;3.73;;;;;;;15.94;100.00;95224.34;7435553;19;20388;-95
2023/08/27 11:57:37;;;;;;;3.13;2.73;;;;;;;15.03;100.00;95188.78;7436270;19;20441;-96
2023/08/27 12:00:30;;;;;;;3.60;2.87;;;;;;;14.83;100.00;95147.78;7435036;19;20389;-96
2023/08/27 12:03:06;;;;;;;2.80;2.60;;;;;;;14.98;100.00;95208.59;7433886;19;20388;-96
2023/08/27 12:05:38;;;;;;;2.47;2.20;;;;;;;16.00;100.00;95375.91;7435362;19;20392;-96
2023/08/27 12:08:16;;;;;;;3.30;2.60;;;;;;;16.81;100.00;95524.41;7433391;19;20464;-95
2023/08/27 12:10:56;;;;;;;4.10;3.57;;;;;;;14.51;100.00;95199.06;7434040;19;20401;-96
2023/08/27 12:13:26;;;;;;;3.60;3.30;;;;;;;15.65;100.00;95380.16;7431945;19;20396;-96
2023/08/27 12:15:57;;;;;;;4.50;3.37;;;;;;;14.91;100.00;95271.69;7433603;19;20392;-95
2023/08/27 12:18:35;;;;;;;3.10;2.90;;;;;;;16.00;100.00;95463.91;7433734;19;20456;-96
2023/08/27 12:21:08;;;;;;;2.90;2.63;;;;;;;14.32;100.00;95226.75;7434142;19;20401;-96
2023/08/27 12:24:06;;;;;;;46.20;42.40;;;;;;;14.36;100.00;95224.09;7435719;19;20384;-96
2023/08/27 12:26:47;;;;;;;2.53;2.33;;;;;;;15.18;100.00;95342.06;7434954;19;20393;-96
2023/08/27 12:29:27;;;;;;;2.80;2.60;;;;;;;15.42;100.00;95374.41;7431241;19;20428;-96
2023/08/27 12:32:09;;;;;;;18.90;16.93;;;;;;;15.30;100.00;95352.34;7435886;19;20409;-96
2023/08/27 12:34:59;;;;;;;2.93;2.63;;;;;;;15.58;100.00;95398.78;7434878;19;20381;-96
2023/08/27 12:37:36;;;;;;;11.37;10.33;;;;;;;16.70;100.00;95531.69;7433482;19;20450;-96
2023/08/27 12:40:17;;;;;;;5.60;5.10;;;;;;;14.86;100.00;95238.25;7435958;19;20604;-96
2023/08/27 12:43:05;;;;;;;2.27;2.13;;;;;;;14.51;100.00;95201.72;7393374;19;20456;-95
2023/08/27 13:14:28;;;;;;;3.73;3.43;;;;;;;16.48;100.00;95464.97;7410992;19;20517;-96
2023/08/27 13:17:28;;;;;;;4.87;4.37;;;;;;;14.88;100.00;95216.56;7434074;19;20388;-96
2023/08/27 13:20:25;;;;;;;2.80;2.60;;;;;;;14.67;100.00;95233.28;7432563;19;20384;-96
2023/08/27 13:23:03;;;;;;;5.13;3.03;;;;;;;15.39;100.00;95349.31;7428618;19;20377;-96
2023/08/27 13:25:41;;;;;;;2.80;2.57;;;;;;;14.73;100.00;95272.44;7434644;19;20404;-96
2023/08/27 13:28:22;;;;;;;2.80;2.60;;;;;;;14.67;100.00;95206.66;7432375;19;20474;-95
2023/08/27 13:30:58;;;;;;;3.13;2.53;;;;;;;14.82;100.00;95210.84;7430071;19;20376;-96
2023/08/27 13:33:31;;;;;;;3.60;2.83;;;;;;;14.75;100.00;95195.66;7432778;19;20436;-96
2023/08/27 13:36:08;;;;;;;3.30;2.70;;;;;;;15.30;100.00;95290.31;7431767;19;20385;-95
2023/08/27 13:38:44;;;;;;;2.53;2.33;;;;;;;15.36;100.00;95310.88;7428278;19;20419;-96
2023/08/27 13:41:16;;;;;;;3.67;3.17;;;;;;;15.01;100.00;95241.66;7431342;19;20396;-96
2023/08/27 13:44:05;;;;;;;3.30;3.10;;;;;;;16.24;100.00;95410.53;7431109;19;20384;-96
2023/08/27 13:46:43;;;;;;;3.60;3.40;;;;;;;15.95;100.00;95369.84;7432955;19;20398;-96
2023/08/27 13:49:25;;;;;;;3.20;2.97;;;;;;;15.78;100.00;95373.31;7429340;19;20429;-96
2023/08/27 13:52:25;;;;;;;3.00;2.80;;;;;;;14.74;100.00;95215.44;7430861;19;20390;-96
2023/08/27 13:55:07;;;;;;;2.93;2.73;;;;;;;14.55;100.00;95191.84;7429893;19;20384;-96
2023/08/27 14:27:05;;;;;;;2.33;2.13;;;;;;;14.99;100.00;95281.22;7396515;19;20460;-96
2023/08/27 14:29:44;;;;;;;3.43;2.47;;;;;;;16.60;100.00;95519.09;7428391;19;20443;-96
2023/08/27 14:32:26;;;;;;;3.20;2.47;;;;;;;14.98;100.00;95293.00;7429310;19;20376;-96
2023/08/27 14:35:19;;;;;;;3.03;2.83;;;;;;;14.89;100.00;95287.28;7427994;19;20376;-96
2023/08/27 14:37:57;;;;;;;2.60;2.40;;;;;;;15.59;100.00;95384.31;7434733;19;20380;-96
2023/08/27 14:40:36;;;;;;;2.63;2.43;;;;;;;15.88;100.00;95414.41;7432528;19;20412;-96
2023/08/27 14:43:30;;;;;;;2.87;2.50;;;;;;;15.83;100.00;95377.47;7436243;19;20376;-96
2023/08/27 14:46:13;;;;;;;3.97;2.43;;;;;;;15.95;100.00;95382.41;7435042;19;20383;-96
2023/08/27 14:52:56;;;;;;;2.43;2.23;;;;;;;16.62;100.00;95482.88;7435008;19;20369;-96
2023/08/27 15:52:10;;;;;;;4.23;2.13;;;;;;;14.25;100.00;95537.03;7433613;19;20429;-96
2023/08/27 15:58:12;;;;;;;2.73;2.20;;;;;;;13.14;100.00;95370.66;7422639;19;20440;-96
2023/08/27 16:00:48;;;;;;;2.57;2.00;;;;;;;13.21;100.00;95397.28;7433824;19;20405;-96
2023/08/27 16:03:37;;;;;;;1.90;1.80;;;;;;;12.64;100.00;95341.75;7437237;19;20425;-95
2023/08/27 16:06:23;;;;;;;3.53;2.03;;;;;;;12.57;100.00;95291.31;7437553;19;20380;-96
2023/08/27 16:08:56;;;;;;;2.40;1.60;;;;;;;13.83;100.00;95540.88;7434986;19;20435;-96
2023/08/27 16:11:36;;;;;;;2.20;1.93;;;;;;;13.85;100.00;95535.97;7432375;19;20396;-96
2023/08/27 16:14:24;;;;;;;3.37;2.27;;;;;;;12.63;100.00;95294.38;7436791;19;20444;-96
2023/08/27 16:16:59;;;;;;;2.47;2.27;;;;;;;13.51;100.00;95386.53;7432979;19;20381;-94
2023/08/27 16:19:30;;;;;;;3.47;1.90;;;;;;;14.06;100.00;95466.28;7432751;19;20452;-95
2023/08/27 16:21:57;;;;;;;2.60;2.00;;;;;;;13.92;100.00;95428.97;7435650;19;20404;-95
2023/08/27 16:24:30;;;;;;;3.53;2.40;;;;;;;14.11;100.00;95445.41;7432179;19;20377;-96
2023/08/27 16:27:01;;;;;;;2.73;2.53;;;;;;;13.70;100.00;95433.34;7432352;19;20385;-95
2023/08/27 16:29:34;;;;;;;2.80;2.57;;;;;;;14.28;100.00;95523.75;7432880;19;20424;-96
2023/08/27 16:35:05;;;;;;;2.43;2.20;;;;;;;12.49;100.00;95305.59;7432210;19;20406;-96
2023/08/27 16:37:44;;;;;;;4.10;2.60;;;;;;;13.26;100.00;95399.59;7431391;19;20375;-95
2023/08/27 17:40:33;;;;;;;2.13;1.93;;;;;;;14.15;100.00;95541.91;7323770;19;20440;-96
2023/08/27 17:43:14;;;;;;;1.93;1.70;;;;;;;13.45;100.00;95435.78;7429435;19;20373;-96
2023/08/27 17:46:00;;;;;;;3.20;2.60;;;;;;;14.08;100.00;95549.84;7400903;19;20439;-96
2023/08/27 17:51:52;;;;;;;2.10;1.90;;;;;;;13.08;100.00;95419.88;7429600;19;20409;-96
2023/08/27 17:54:47;;;;;;;4.13;2.40;;;;;;;13.15;100.00;95417.28;7429662;19;20376;-96
2023/08/27 18:22:04;;;;;;;1.93;1.73;;;;;;;14.00;100.00;95587.34;7425353;19;20455;-96
2023/08/27 18:24:52;;;;;;;3.67;2.30;;;;;;;12.40;100.00;95372.16;7429479;19;20365;-96
2023/08/27 18:27:32;;;;;;;2.33;2.10;;;;;;;13.28;100.00;95484.94;7431888;19;20404;-96
2023/08/27 18:30:07;;;;;;;2.50;2.27;;;;;;;13.35;100.00;95481.59;7432293;19;20396;-96
2023/08/27 18:32:44;;;;;;;4.03;2.10;;;;;;;13.39;100.00;95493.03;7432139;19;20362;-96
2023/08/27 18:35:25;;;;;;;3.10;2.80;;;;;;;13.48;100.00;95517.38;7429514;19;20387;-96
2023/08/27 18:38:04;;;;;;;3.80;2.73;;;;;;;13.42;100.00;95500.25;7432745;19;20388;-96
2023/08/27 18:40:32;;;;;;;5.83;2.97;;;;;;;12.71;100.00;95407.38;7429303;19;20408;-96
2023/08/27 18:43:03;;;;;;;5.43;3.90;;;;;;;12.71;100.00;95412.66;7433338;19;20371;-96
2023/08/27 18:45:33;;;;;;;3.13;2.80;;;;;;;12.69;100.00;95399.78;7429235;19;20361;-96
2023/08/27 18:48:03;;;;;;;10.67;6.20;;;;;;;13.26;100.00;95487.97;7429063;19;20341;-96
2023/08/27 18:51:11;;;;;;;2.97;1.90;;;;;;;12.59;100.00;95389.81;7427096;19;20396;-96
2023/08/27 18:54:16;;;;;;;3.00;2.63;;;;;;;12.55;100.00;95382.91;7428535;19;20427;-96
2023/08/27 18:57:22;;;;;;;2.00;1.80;;;;;;;14.18;100.00;95625.50;7429164;19;20381;-96
2023/08/27 19:00:46;;;;;;;2.47;2.27;;;;;;;12.87;100.00;95447.72;7428911;19;20369;-96
2023/08/27 19:04:01;;;;;;;2.00;1.80;;;;;;;12.52;100.00;95399.56;7428271;19;20367;-96
2023/08/27 19:07:10;;;;;;;3.63;2.30;;;;;;;13.42;100.00;95551.47;7427672;19;20394;-96
2023/08/27 19:30:40;;;;;;;2.33;1.67;;;;;;;12.60;100.00;95566.34;7380935;19;20482;-96
2023/08/27 19:33:15;;;;;;;5.47;2.37;;;;;;;12.34;100.00;95543.25;7439698;19;20401;-96
2023/08/27 19:35:48;;;;;;;6.23;2.00;;;;;;;12.07;100.00;95520.50;7437495;19;20373;-96
2023/08/27 19:38:20;;;;;;;1.90;1.70;;;;;;;12.59;100.00;95599.28;7436181;19;20361;-96
2023/08/27 19:41:01;;;;;;;2.87;2.67;;;;;;;12.35;100.00;95554.63;7438616;19;20373;-96
2023/08/27 19:43:33;;;;;;;4.90;2.00;;;;;;;12.34;100.00;95563.69;7435583;19;20352;-96
2023/08/27 19:46:06;;;;;;;2.23;1.70;;;;;;;11.73;100.00;95462.03;7435233;19;20361;-96
2023/08/27 19:48:44;;;;;;;3.20;1.93;;;;;;;11.83;100.00;95471.31;7434974;19;20420;-95
2023/08/27 19:51:15;;;;;;;3.00;2.80;;;;;;;12.55;100.00;95587.84;7432326;19;20458;-96
2023/08/27 19:53:42;;;;;;;6.57;2.60;;;;;;;11.70;100.00;95446.84;7434875;19;20411;-95
2023/08/27 19:56:32;;;;;;;3.73;2.10;;;;;;;11.68;100.00;95451.75;7437556;19;20433;-96
2023/08/27 19:59:20;;;;;;;2.80;2.47;;;;;;;13.15;100.00;95642.91;7434855;19;20456;-96
2023/08/27 20:02:25;;;;;;;;;;;;;;;;;;;;;
2023/08/27 20:05:27;;;;;;;2.67;2.23;;;;;;;12.85;100.00;95552.66;7434440;19;20389;-96
2023/08/27 20:20:14;;;;;;;4.60;2.73;;;;;;;11.63;100.00;95446.75;7422022;19;20433;-96
2023/08/27 20:22:47;;;;;;;2.50;2.13;;;;;;;11.77;100.00;95473.47;7433971;19;20412;-96
2023/08/27 20:25:21;;;;;;;3.90;2.27;;;;;;;12.82;100.00;95615.16;7435989;19;20424;-96
2023/08/27 21:44:23;;;;;;;6.17;3.20;;;;;;;12.52;100.00;95532.88;7366185;19;20441;-94
2023/08/27 21:47:01;;;;;;;4.50;2.40;;;;;;;13.07;100.00;95633.28;7432480;19;20451;-94
2023/08/27 23:11:33;;;;;;;3.13;2.17;;;;;;;11.15;100.00;95382.81;7438448;19;20372;-95
2023/08/27 23:14:09;;;;;;;2.70;2.50;;;;;;;13.13;100.00;95675.09;7434340;19;20396;-94
2023/08/27 23:16:43;;;;;;;7.23;2.37;;;;;;;11.94;100.00;95511.19;7432707;19;20400;-95
2023/08/27 23:19:27;;;;;;;4.40;2.77;;;;;;;12.32;100.00;95561.41;7435958;19;20401;-94
2023/08/27 23:22:27;;;;;;;2.00;1.90;;;;;;;13.22;100.00;95707.50;7438120;19;20395;-94
2023/08/27 23:25:00;;;;;;;2.97;2.77;;;;;;;11.98;100.00;95531.31;7436081;19;20381;-94
2023/08/27 23:27:42;;;;;;;2.13;1.93;;;;;;;12.48;100.00;95589.66;7435963;19;20424;-94
2023/08/27 23:30:17;;;;;;;3.17;2.70;;;;;;;11.20;100.00;95406.34;7437299;19;20384;-94
2023/08/27 23:32:54;;;;;;;2.30;2.20;;;;;;;12.02;100.00;95524.22;7432908;19;20391;-95
2023/08/27 23:35:34;;;;;;;2.43;2.23;;;;;;;11.62;100.00;95487.59;7437253;19;20388;-93
